Time;durP1;ratioP1;P1;durP2;ratioP2;P2;SDS_P1;SDS_P2;PMS_P1;PMS_P2;Temp;Humidity;BMP_temperature;BMP_pressure;BME280_temperature;BME280_humidity;BME280_pressure;Samples;Min_cycle;Max_cycle;Signal;HPM_P1;HPM_P2
2023/01/06 00:02:20;;;;;;;0.95;0.90;;;;;;;3.20;100.00;100510.78;6064791;23;20452;-90
2023/01/06 00:04:46;;;;;;;1.70;1.60;;;;;;;3.43;100.00;100538.06;6066301;23;20347;-91
2023/01/06 00:07:11;;;;;;;1.65;1.55;;;;;;;3.47;100.00;100543.59;6042694;23;20038;-90
2023/01/06 00:09:37;;;;;;;1.55;1.45;;;;;;;3.54;100.00;100549.91;6089498;23;20410;-90
2023/01/06 00:12:03;;;;;;;0.17;0.17;;;;;;;3.48;100.00;100543.19;6042715;23;20029;-90
2023/01/06 00:14:28;;;;;;;1.35;1.13;;;;;;;3.45;100.00;100546.69;6068262;23;20011;-90
2023/01/06 00:16:54;;;;;;;2.00;1.55;;;;;;;3.53;100.00;100555.78;6043918;23;20042;-90
2023/01/06 00:19:20;;;;;;;5.18;1.55;;;;;;;3.48;100.00;100554.16;6070699;23;20085;-90
2023/01/06 00:21:45;;;;;;;1.08;0.85;;;;;;;3.56;100.00;100564.03;6069047;23;20010;-90
2023/01/06 00:24:11;;;;;;;2.05;1.90;;;;;;;3.49;100.00;100558.47;6047888;23;20443;-91
2023/01/06 00:26:37;;;;;;;1.52;1.35;;;;;;;3.34;100.00;100543.06;6045694;23;20033;-90
2023/01/06 00:29:03;;;;;;;1.42;1.33;;;;;;;3.40;100.00;100563.47;6045569;23;20602;-90
2023/01/06 00:31:28;;;;;;;2.53;1.55;;;;;;;3.41;100.00;100570.53;6045081;23;20014;-91
2023/01/06 00:33:55;;;;;;;0.85;0.85;;;;;;;3.39;100.00;100545.47;6045666;23;20016;-90
2023/01/06 00:36:21;;;;;;;2.35;1.88;;;;;;;3.34;100.00;100553.22;6070315;23;20012;-91
2023/01/06 00:38:48;;;;;;;2.00;1.65;;;;;;;3.28;100.00;100566.47;6045132;23;20010;-90
2023/01/06 00:43:58;;;;;;;0.90;0.90;;;;;;;3.19;100.00;100585.19;6072871;23;20014;-90
2023/01/06 00:46:27;;;;;;;0.70;0.70;;;;;;;3.09;100.00;100583.09;6044122;23;20022;-90
2023/01/06 00:48:54;;;;;;;0.75;0.75;;;;;;;2.92;100.00;100562.53;6070684;23;20010;-90
2023/01/06 00:51:20;;;;;;;0.77;0.77;;;;;;;3.00;100.00;100588.06;6093813;23;20372;-90
2023/01/06 00:53:45;;;;;;;0.98;0.98;;;;;;;2.98;100.00;100595.88;6068996;23;20049;-90
2023/01/06 00:56:11;;;;;;;4.13;1.65;;;;;;;2.83;100.00;100595.69;6069615;23;20006;-91
2023/01/06 00:58:37;;;;;;;0.50;0.50;;;;;;;2.67;100.00;100589.59;6045591;23;20025;-91
2023/01/06 01:01:07;;;;;;;0.98;0.98;;;;;;;2.73;100.00;100618.25;6094530;23;20112;-90
2023/01/06 01:03:33;;;;;;;0.43;0.43;;;;;;;2.77;100.00;100613.63;6092604;23;20022;-90
2023/01/06 01:06:00;;;;;;;5.13;3.10;;;;;;;2.76;100.00;100617.50;6045587;23;20053;-90
2023/01/06 01:08:26;;;;;;;1.25;1.10;;;;;;;2.65;100.00;100605.63;6069715;23;20025;-89
2023/01/06 01:10:52;;;;;;;2.58;2.10;;;;;;;2.63;100.00;100613.41;6044887;23;20014;-90
2023/01/06 01:13:17;;;;;;;0.75;0.75;;;;;;;2.59;100.00;100600.84;6069686;23;20351;-89
2023/01/06 01:15:43;;;;;;;0.43;0.40;;;;;;;2.60;100.00;100600.47;6044222;23;20170;-90
2023/01/06 01:18:09;;;;;;;2.55;0.80;;;;;;;2.69;100.00;100622.09;6069267;23;20440;-89
2023/01/06 01:20:34;;;;;;;0.10;0.10;;;;;;;2.63;100.00;100610.66;6069821;23;20452;-89
2023/01/06 01:23:00;;;;;;;0.40;0.40;;;;;;;2.66;100.00;100615.44;6117208;23;20027;-90
2023/01/06 01:25:25;;;;;;;0.98;0.98;;;;;;;2.60;100.00;100600.47;6092785;23;20427;-90
2023/01/06 01:27:51;;;;;;;0.82;0.82;;;;;;;2.74;100.00;100613.56;6066384;23;20379;-89
2023/01/06 01:30:19;;;;;;;0.30;0.30;;;;;;;2.84;100.00;100618.41;6094662;23;20551;-89
2023/01/06 01:32:46;;;;;;;0.77;0.77;;;;;;;2.83;100.00;100609.38;6092526;23;20085;-90
2023/01/06 01:35:12;;;;;;;2.45;2.25;;;;;;;3.02;100.00;100629.59;6091728;23;20069;-89
2023/01/06 01:37:38;;;;;;;0.65;0.65;;;;;;;3.02;100.00;100629.59;6044856;23;20002;-91
2023/01/06 01:40:04;;;;;;;0.95;0.65;;;;;;;3.09;100.00;100640.66;6043089;23;20065;-90
2023/01/06 01:42:30;;;;;;;2.63;2.42;;;;;;;2.98;100.00;100617.81;6067620;23;20022;-90
2023/01/06 01:45:01;;;;;;;0.73;0.73;;;;;;;3.19;100.00;100645.50;6068116;23;20002;-91
2023/01/06 01:47:47;;;;;;;0.17;0.17;;;;;;;3.33;100.00;100656.63;6090680;23;20069;-89
2023/01/06 01:50:43;;;;;;;0.70;0.68;;;;;;;3.31;100.00;100656.22;6069544;23;20403;-90
2023/01/06 01:53:20;;;;;;;1.98;1.83;;;;;;;3.10;100.00;100653.22;6057012;23;20101;-90
2023/01/06 01:55:48;;;;;;;1.30;1.05;;;;;;;3.06;100.00;100644.16;6045931;23;20014;-90
2023/01/06 01:58:20;;;;;;;2.60;2.05;;;;;;;2.91;100.00;100658.81;6093679;23;20355;-90
2023/01/06 02:00:46;;;;;;;1.03;0.97;;;;;;;2.83;100.00;100655.97;6045209;23;20435;-89
2023/01/06 02:03:13;;;;;;;1.60;1.50;;;;;;;2.79;100.00;100648.88;6069333;23;20003;-90
2023/01/06 02:05:41;;;;;;;0.47;0.47;;;;;;;2.63;100.00;100662.72;6045053;23;20018;-91
2023/01/06 02:08:17;;;;;;;2.17;1.13;;;;;;;2.50;100.00;100666.81;6069068;23;20015;-90
2023/01/06 02:10:43;;;;;;;0.45;0.45;;;;;;;2.44;100.00;100660.06;6045246;23;20113;-90
2023/01/06 02:13:08;;;;;;;0.55;0.55;;;;;;;2.31;100.00;100656.72;6045048;23;20459;-89
2023/01/06 02:15:35;;;;;;;1.65;1.27;;;;;;;2.17;100.00;100644.78;6069477;23;20018;-90
2023/01/06 02:18:04;;;;;;;2.42;2.13;;;;;;;2.33;100.00;100659.13;6093089;23;20041;-90
2023/01/06 02:21:20;;;;;;;3.15;2.28;;;;;;;2.33;100.00;100648.16;6093877;23;20022;-89
2023/01/06 02:24:08;;;;;;;0.77;0.57;;;;;;;2.32;100.00;100652.06;6064604;23;20029;-90
2023/01/06 02:27:12;;;;;;;0.93;0.93;;;;;;;2.32;100.00;100649.31;6092460;23;20336;-90
2023/01/06 02:30:03;;;;;;;1.95;1.58;;;;;;;2.23;100.00;100643.28;6093374;23;20485;-90
2023/01/06 02:32:53;;;;;;;2.33;1.08;;;;;;;2.21;100.00;100640.16;6091193;23;20045;-91
2023/01/06 02:35:24;;;;;;;0.57;0.57;;;;;;;2.18;100.00;100646.34;6091548;23;20018;-89
2023/01/06 02:38:08;;;;;;;0.65;0.65;;;;;;;2.19;100.00;100651.44;6064857;23;20019;-89
2023/01/06 02:40:44;;;;;;;;;;;;;;;2.20;100.00;100654.97;6091068;23;20525;-90
2023/01/06 02:43:37;;;;;;;0.20;0.20;;;;;;;2.17;100.00;100655.72;6066427;23;20080;-90
2023/01/06 02:46:07;;;;;;;;;;;;;;;2.12;100.00;100661.47;6082173;23;20036;-89
2023/01/06 02:48:44;;;;;;;0.95;0.70;;;;;;;2.12;100.00;100656.00;6064770;23;19917;-90
2023/01/06 02:51:17;;;;;;;3.13;1.67;;;;;;;2.12;100.00;100664.22;6092584;23;20018;-89
2023/01/06 02:54:10;;;;;;;1.08;0.88;;;;;;;2.18;100.00;100660.03;6066222;23;20041;-90
2023/01/06 02:56:39;;;;;;;1.05;1.05;;;;;;;2.20;100.00;100658.50;6043760;23;20030;-90
2023/01/06 02:59:08;;;;;;;1.20;1.10;;;;;;;2.22;100.00;100649.94;6068073;23;20018;-90
2023/01/06 03:01:39;;;;;;;0.60;0.60;;;;;;;2.37;100.00;100654.47;6042650;23;20022;-90
2023/01/06 03:04:10;;;;;;;1.08;1.08;;;;;;;2.43;100.00;100642.06;6043501;23;20025;-89
2023/01/06 03:06:43;;;;;;;0.70;0.70;;;;;;;2.40;100.00;100648.25;6042670;23;20014;-90
2023/01/06 03:09:16;;;;;;;1.35;0.82;;;;;;;2.46;100.00;100657.78;6045523;23;20022;-90
2023/01/06 03:11:45;;;;;;;0.10;0.10;;;;;;;2.42;100.00;100662.41;6090713;23;20029;-90
2023/01/06 03:14:20;;;;;;;2.08;1.98;;;;;;;2.39;100.00;100663.09;6044711;23;20025;-89
2023/01/06 03:16:46;;;;;;;0.30;0.30;;;;;;;2.39;100.00;100668.59;6090701;23;20336;-90
2023/01/06 03:19:12;;;;;;;1.42;1.33;;;;;;;2.20;100.00;100627.59;6068308;23;20017;-90
2023/01/06 03:21:41;;;;;;;2.15;1.08;;;;;;;2.32;100.00;100641.09;6068422;23;20042;-89
2023/01/06 03:24:09;;;;;;;1.38;1.30;;;;;;;2.31;100.00;100653.19;6041710;23;20093;-89
2023/01/06 03:26:36;;;;;;;0.98;0.95;;;;;;;2.25;100.00;100657.41;6092639;23;20057;-91
2023/01/06 03:29:08;;;;;;;0.28;0.28;;;;;;;2.18;100.00;100660.84;6045362;23;20400;-90
2023/01/06 03:31:46;;;;;;;0.90;0.88;;;;;;;2.12;100.00;100659.53;6044169;23;20065;-91
2023/01/06 03:34:38;;;;;;;1.30;1.15;;;;;;;2.11;100.00;100659.91;6045032;23;20038;-90
2023/01/06 03:37:36;;;;;;;0.20;0.20;;;;;;;2.03;100.00;100671.88;6068578;23;20426;-90
2023/01/06 03:40:16;;;;;;;0.55;0.45;;;;;;;1.94;100.00;100665.88;6069110;23;20018;-90
2023/01/06 03:45:39;;;;;;;2.33;1.33;;;;;;;1.87;100.00;100653.63;6071698;23;20018;-89
2023/01/06 03:48:21;;;;;;;2.10;1.92;;;;;;;1.88;100.00;100651.69;6044844;23;20038;-91
2023/01/06 03:50:59;;;;;;;1.15;1.13;;;;;;;1.80;100.00;100642.56;6067757;23;20099;-90
2023/01/06 03:53:32;;;;;;;1.13;1.10;;;;;;;1.76;100.00;100644.44;6044753;23;20026;-89
2023/01/06 03:56:08;;;;;;;1.45;1.35;;;;;;;1.71;100.00;100644.72;6044206;23;20062;-89
2023/01/06 03:58:35;;;;;;;0.40;0.40;;;;;;;1.79;100.00;100651.91;6092657;23;20014;-89
2023/01/06 04:01:01;;;;;;;0.65;0.65;;;;;;;1.83;100.00;100647.31;6068139;23;20018;-89
2023/01/06 04:03:27;;;;;;;1.58;1.38;;;;;;;1.85;100.00;100646.94;6067599;23;20023;-90
2023/01/06 04:05:53;;;;;;;0.10;0.10;;;;;;;1.85;100.00;100645.00;6042088;23;20049;-89
2023/01/06 04:08:19;;;;;;;1.45;0.73;;;;;;;1.74;100.00;100633.06;6042384;23;20514;-90
2023/01/06 04:10:45;;;;;;;1.10;0.75;;;;;;;1.72;100.00;100635.38;6041630;23;20042;-89
2023/01/06 04:13:10;;;;;;;0.20;0.20;;;;;;;1.80;100.00;100648.03;6043093;23;20018;-90
2023/01/06 04:15:37;;;;;;;0.88;0.88;;;;;;;1.80;100.00;100658.19;6041361;23;20025;-89
2023/01/06 04:18:05;;;;;;;1.33;1.05;;;;;;;1.65;100.00;100635.25;6044428;23;20006;-89
2023/01/06 04:20:34;;;;;;;0.95;0.90;;;;;;;1.72;100.00;100648.25;6065694;23;20447;-90
2023/01/06 04:23:08;;;;;;;1.95;0.47;;;;;;;1.67;100.00;100632.16;6046135;23;20022;-89
2023/01/06 04:25:37;;;;;;;0.65;0.50;;;;;;;1.67;100.00;100630.19;6066076;23;20537;-90
2023/01/06 04:28:11;;;;;;;1.75;1.27;;;;;;;1.84;100.00;100643.41;6092150;23;20009;-89
2023/01/06 04:30:37;;;;;;;2.30;1.85;;;;;;;1.76;100.00;100630.78;6090330;23;20042;-89
2023/01/06 04:33:02;;;;;;;2.15;0.80;;;;;;;1.82;100.00;100640.25;6065459;23;20430;-90
2023/01/06 04:35:28;;;;;;;0.93;0.93;;;;;;;1.74;100.00;100624.84;6043315;23;20194;-89
2023/01/06 04:37:54;;;;;;;0.55;0.55;;;;;;;1.71;100.00;100617.38;6065576;23;20014;-91
2023/01/06 04:40:19;;;;;;;0.22;0.22;;;;;;;1.80;100.00;100633.56;6065569;23;20210;-91
2023/01/06 04:43:03;;;;;;;1.35;1.25;;;;;;;1.73;100.00;100620.56;6041502;23;20037;-90
2023/01/06 04:45:28;;;;;;;1.05;1.05;;;;;;;1.63;100.00;100614.88;6069971;23;20029;-90
2023/01/06 04:47:54;;;;;;;0.68;0.68;;;;;;;1.51;100.00;100613.09;6019210;23;20010;-90
2023/01/06 04:50:19;;;;;;;3.40;1.05;;;;;;;1.36;100.00;100614.78;6066072;23;20085;-90
2023/01/06 04:52:45;;;;;;;1.73;1.60;;;;;;;1.45;100.00;100625.50;6065611;23;20013;-91
2023/01/06 04:55:11;;;;;;;1.52;0.82;;;;;;;1.42;100.00;100630.91;6043701;23;20077;-89
2023/01/06 04:57:36;;;;;;;0.47;0.47;;;;;;;1.38;100.00;100622.59;6041332;23;20007;-89
2023/01/06 05:00:03;;;;;;;0.40;0.40;;;;;;;1.45;100.00;100621.97;6043570;23;20015;-89
2023/01/06 05:02:28;;;;;;;0.30;0.30;;;;;;;1.49;100.00;100644.69;6067663;23;20010;-91
2023/01/06 05:04:54;;;;;;;0.63;0.63;;;;;;;1.48;100.00;100652.09;6044760;23;20021;-91
2023/01/06 05:07:19;;;;;;;0.40;0.40;;;;;;;1.57;100.00;100677.28;6068787;23;20062;-89
2023/01/06 05:09:45;;;;;;;0.20;0.20;;;;;;;1.85;100.00;100702.47;6066435;23;20019;-90
2023/01/06 05:12:10;;;;;;;0.47;0.47;;;;;;;1.88;100.00;100703.66;6044036;23;20011;-91
2023/01/06 05:14:36;;;;;;;0.25;0.25;;;;;;;1.85;100.00;100699.72;6069209;23;20022;-90
2023/01/06 05:17:01;;;;;;;0.98;0.32;;;;;;;1.73;100.00;100680.72;6067057;23;20016;-90
2023/01/06 05:19:27;;;;;;;0.10;0.10;;;;;;;1.85;100.00;100688.78;6045784;23;20010;-90
2023/01/06 05:21:52;;;;;;;2.30;1.38;;;;;;;1.81;100.00;100681.66;6066620;23;20018;-91
2023/01/06 05:24:18;;;;;;;1.08;1.02;;;;;;;1.77;100.00;100664.38;6044000;23;20021;-91
2023/01/06 05:26:43;;;;;;;0.65;0.65;;;;;;;1.96;100.00;100696.38;6067186;23;20017;-90
2023/01/06 05:29:13;;;;;;;1.58;1.48;;;;;;;1.93;100.00;100694.38;6043517;23;20010;-90
2023/01/06 05:31:39;;;;;;;0.95;0.95;;;;;;;1.89;100.00;100697.06;6044826;23;20022;-89
2023/01/06 05:34:04;;;;;;;0.10;0.10;;;;;;;1.86;100.00;100697.78;6067724;23;20014;-89
2023/01/06 05:36:30;;;;;;;0.80;0.52;;;;;;;1.80;100.00;100700.00;6043900;23;20023;-90
2023/01/06 05:38:56;;;;;;;1.10;0.98;;;;;;;1.73;100.00;100696.34;6044651;23;20018;-90
2023/01/06 05:41:21;;;;;;;0.40;0.40;;;;;;;1.79;100.00;100717.56;6066593;23;20030;-90
2023/01/06 05:43:47;;;;;;;1.05;0.98;;;;;;;1.75;100.00;100721.38;6045072;23;20014;-89
2023/01/06 05:46:13;;;;;;;1.17;0.85;;;;;;;1.56;100.00;100713.97;6042672;23;20014;-90
2023/01/06 05:48:38;;;;;;;2.90;1.92;;;;;;;1.67;100.00;100747.78;6092347;23;20013;-90
2023/01/06 05:51:10;;;;;;;0.35;0.35;;;;;;;1.63;100.00;100746.94;6092150;23;20018;-90
2023/01/06 05:53:38;;;;;;;1.48;1.38;;;;;;;1.66;100.00;100743.47;6067167;23;20046;-90
2023/01/06 05:56:05;;;;;;;1.63;1.52;;;;;;;1.60;100.00;100728.53;6044495;23;20034;-91
2023/01/06 05:58:35;;;;;;;0.82;0.82;;;;;;;1.58;100.00;100736.28;6067537;23;20457;-91
2023/01/06 06:01:02;;;;;;;1.63;1.52;;;;;;;1.61;100.00;100738.31;6066759;23;20447;-92
2023/01/06 06:03:28;;;;;;;0.70;0.70;;;;;;;1.46;100.00;100720.00;6064395;23;20069;-92
2023/01/06 06:05:54;;;;;;;2.30;1.48;;;;;;;1.45;100.00;100704.78;6063965;23;20010;-90
2023/01/06 06:08:19;;;;;;;1.30;1.20;;;;;;;1.58;100.00;100716.38;6066077;23;20049;-91
2023/01/06 06:10:45;;;;;;;1.35;1.25;;;;;;;1.57;100.00;100715.56;6040691;23;20034;-91
2023/01/06 06:13:10;;;;;;;1.23;1.08;;;;;;;1.62;100.00;100728.16;6041748;23;20015;-90
2023/01/06 06:15:36;;;;;;;1.55;0.93;;;;;;;1.73;100.00;100746.38;6065874;23;20025;-92
2023/01/06 06:18:05;;;;;;;1.38;0.90;;;;;;;1.59;100.00;100737.06;6065633;23;20007;-90
2023/01/06 06:20:31;;;;;;;0.70;0.70;;;;;;;1.38;100.00;100718.28;6043580;23;20022;-90
2023/01/06 06:22:56;;;;;;;0.38;0.38;;;;;;;1.36;100.00;100715.13;6039718;23;20006;-92
2023/01/06 06:25:22;;;;;;;1.55;1.48;;;;;;;1.58;100.00;100755.41;6065556;23;20605;-90
2023/01/06 06:27:47;;;;;;;1.77;0.93;;;;;;;1.40;100.00;100729.66;6043075;23;20022;-91
2023/01/06 06:30:15;;;;;;;1.80;1.17;;;;;;;1.58;100.00;100746.44;6043168;23;20018;-90
2023/01/06 06:32:40;;;;;;;0.55;0.52;;;;;;;1.54;100.00;100762.00;6042396;23;20482;-89
2023/01/06 06:35:06;;;;;;;1.88;1.77;;;;;;;1.45;100.00;100748.53;6042356;23;20019;-89
2023/01/06 06:37:32;;;;;;;0.25;0.25;;;;;;;1.58;100.00;100763.63;6044629;23;20085;-90
2023/01/06 06:39:58;;;;;;;0.47;0.47;;;;;;;1.64;100.00;100764.94;6068977;23;20010;-90
2023/01/06 06:42:26;;;;;;;0.20;0.20;;;;;;;1.73;100.00;100762.78;6068159;23;20014;-90
2023/01/06 06:44:52;;;;;;;0.20;0.20;;;;;;;1.73;100.00;100746.38;6068980;23;20021;-91
2023/01/06 06:47:17;;;;;;;0.60;0.60;;;;;;;1.80;100.00;100757.44;6043472;23;20033;-89
2023/01/06 06:49:43;;;;;;;3.78;1.23;;;;;;;1.90;100.00;100771.72;6066759;23;20010;-90
2023/01/06 06:52:09;;;;;;;0.90;0.90;;;;;;;1.94;100.00;100772.56;6068647;23;20057;-89
2023/01/06 06:54:34;;;;;;;1.65;1.55;;;;;;;1.94;100.00;100756.94;6068754;23;20014;-90
2023/01/06 06:57:00;;;;;;;2.20;2.00;;;;;;;2.10;100.00;100767.81;6068944;23;20018;-90
2023/01/06 06:59:25;;;;;;;0.82;0.82;;;;;;;2.25;100.00;100766.91;6069694;23;20007;-90
2023/01/06 07:01:51;;;;;;;0.85;0.85;;;;;;;2.32;100.00;100770.56;6044394;23;20022;-90
2023/01/06 07:04:16;;;;;;;1.10;1.05;;;;;;;2.38;100.00;100757.38;6068868;23;20006;-90
2023/01/06 07:06:42;;;;;;;1.35;1.25;;;;;;;2.46;100.00;100772.78;6091829;23;20455;-90
2023/01/06 07:09:08;;;;;;;1.08;1.08;;;;;;;2.60;100.00;100775.75;6044974;23;20018;-89
2023/01/06 07:11:33;;;;;;;0.55;0.55;;;;;;;2.71;100.00;100763.00;6068421;23;20325;-89
2023/01/06 07:13:59;;;;;;;0.88;0.88;;;;;;;2.55;100.00;100737.69;6092175;23;20006;-89
2023/01/06 07:16:25;;;;;;;2.08;1.60;;;;;;;2.74;100.00;100767.00;6067615;23;20010;-89
2023/01/06 07:18:51;;;;;;;1.80;1.15;;;;;;;2.68;100.00;100762.97;6045125;23;20014;-88
2023/01/06 07:21:17;;;;;;;2.83;1.50;;;;;;;2.68;100.00;100768.44;6044929;23;20025;-90
2023/01/06 07:23:42;;;;;;;0.77;0.77;;;;;;;2.67;100.00;100767.63;6091663;23;20014;-90
2023/01/06 07:26:08;;;;;;;0.85;0.65;;;;;;;2.46;100.00;100734.44;6045222;23;20049;-89
2023/01/06 07:28:33;;;;;;;1.63;1.52;;;;;;;2.55;100.00;100737.69;6068362;23;20379;-91
2023/01/06 07:31:00;;;;;;;0.10;0.10;;;;;;;2.54;100.00;100730.66;6042969;23;20006;-90
2023/01/06 07:33:25;;;;;;;2.17;1.17;;;;;;;2.68;100.00;100736.34;6067140;23;20419;-90
2023/01/06 07:35:53;;;;;;;0.57;0.57;;;;;;;2.72;100.00;100725.47;6064328;23;20014;-89
2023/01/06 07:38:19;;;;;;;0.20;0.20;;;;;;;2.91;100.00;100749.25;6043139;23;20026;-89
2023/01/06 07:40:44;;;;;;;0.65;0.65;;;;;;;2.99;100.00;100749.00;6045176;23;20023;-89
2023/01/06 07:43:10;;;;;;;0.80;0.30;;;;;;;2.96;100.00;100741.50;6045022;23;20025;-89
2023/01/06 07:45:36;;;;;;;0.38;0.38;;;;;;;2.87;100.00;100731.97;6068402;23;20042;-91
2023/01/06 07:48:02;;;;;;;1.83;0.65;;;;;;;2.91;100.00;100732.81;6044611;23;20007;-89
2023/01/06 07:50:28;;;;;;;0.28;0.28;;;;;;;3.07;100.00;100758.91;6065754;23;20015;-89
2023/01/06 07:52:58;;;;;;;0.60;0.60;;;;;;;3.04;100.00;100764.31;6042859;23;20029;-90
2023/01/06 07:55:24;;;;;;;0.65;0.65;;;;;;;2.98;100.00;100741.13;6041942;23;20045;-90
2023/01/06 07:57:49;;;;;;;0.10;0.10;;;;;;;3.09;100.00;100750.28;6042058;23;20014;-91
2023/01/06 08:00:15;;;;;;;1.92;1.83;;;;;;;3.25;100.00;100754.47;6066530;23;20058;-90
2023/01/06 08:02:41;;;;;;;3.50;1.27;;;;;;;3.43;100.00;100764.91;6042178;23;20037;-91
2023/01/06 08:05:06;;;;;;;1.48;1.45;;;;;;;3.53;100.00;100759.53;6089218;23;20348;-91
2023/01/06 08:07:32;;;;;;;0.85;0.85;;;;;;;3.60;100.00;100754.13;6015443;23;20035;-90
2023/01/06 08:09:57;;;;;;;10.75;3.47;;;;;;;3.78;100.00;100779.06;6015372;23;20011;-93
2023/01/06 08:12:23;;;;;;;0.30;0.30;;;;;;;3.77;100.00;100772.00;5992173;23;20420;-93
2023/01/06 08:14:48;;;;;;;2.63;1.92;;;;;;;3.75;100.00;100755.91;5992288;23;20507;-92
2023/01/06 08:17:14;;;;;;;2.40;2.28;;;;;;;3.82;100.00;100768.94;5991925;23;20007;-93
2023/01/06 08:19:40;;;;;;;1.85;1.20;;;;;;;3.88;100.00;100764.69;6040117;23;20010;-92
2023/01/06 08:22:05;;;;;;;5.50;3.15;;;;;;;4.01;100.00;100776.19;5992293;23;20025;-92
2023/01/06 08:24:31;;;;;;;0.47;0.47;;;;;;;4.04;100.00;100767.22;6014821;23;20011;-92
2023/01/06 08:26:56;;;;;;;1.30;1.20;;;;;;;4.22;100.00;100776.44;6015631;23;20015;-91
2023/01/06 08:29:23;;;;;;;0.90;0.90;;;;;;;4.38;100.00;100777.00;6015979;23;20339;-93
2023/01/06 08:31:49;;;;;;;0.38;0.38;;;;;;;4.47;100.00;100777.50;6014917;23;20570;-95
2023/01/06 08:34:14;;;;;;;1.35;1.08;;;;;;;4.69;100.00;100790.25;5992200;23;20010;-93
2023/01/06 08:36:43;;;;;;;2.97;2.78;;;;;;;4.85;100.00;100787.28;5994102;23;20027;-93
2023/01/06 08:39:10;;;;;;;2.47;2.05;;;;;;;4.97;100.00;100797.19;5994824;23;20430;-94
2023/01/06 08:41:36;;;;;;;2.70;2.50;;;;;;;5.01;100.00;100792.50;5993603;23;20472;-93
2023/01/06 08:44:02;;;;;;;2.90;2.15;;;;;;;4.94;100.00;100787.72;6017698;23;20043;-93
2023/01/06 08:46:27;;;;;;;3.13;2.88;;;;;;;4.93;100.00;100779.88;5993757;23;20019;-92
2023/01/06 08:48:57;;;;;;;5.22;3.83;;;;;;;5.02;100.00;100791.31;6017442;23;20022;-94
2023/01/06 08:51:23;;;;;;;1.90;1.77;;;;;;;5.14;100.00;100802.00;6017345;23;20454;-94
2023/01/06 08:53:50;;;;;;;4.43;4.03;;;;;;;5.16;100.00;100805.19;5993475;23;20347;-93
2023/01/06 08:56:24;;;;;;;7.20;5.63;;;;;;;5.18;100.00;100800.06;6017309;23;20074;-92
2023/01/06 08:58:56;;;;;;;4.07;3.40;;;;;;;5.21;100.00;100793.03;6039703;23;20473;-93
2023/01/06 09:01:24;;;;;;;2.75;2.55;;;;;;;5.10;100.00;100784.69;5993187;23;20026;-92
2023/01/06 09:03:49;;;;;;;3.08;1.25;;;;;;;5.27;100.00;100800.53;6015789;23;20015;-92
2023/01/06 09:06:17;;;;;;;3.78;3.42;;;;;;;5.20;100.00;100810.69;6066733;23;20502;-92
2023/01/06 09:08:42;;;;;;;1.92;1.13;;;;;;;5.13;100.00;100808.69;6044358;23;20073;-94
2023/01/06 09:11:09;;;;;;;3.10;1.75;;;;;;;5.13;100.00;100803.19;6044188;23;20018;-94
2023/01/06 09:13:41;;;;;;;2.70;2.50;;;;;;;5.08;100.00;100815.34;6048759;23;20025;-95
2023/01/06 09:16:08;;;;;;;2.58;2.38;;;;;;;4.98;100.00;100796.00;6044176;23;20014;-93
2023/01/06 09:18:35;;;;;;;2.60;2.25;;;;;;;4.92;100.00;100789.28;6068997;23;20122;-94
2023/01/06 09:21:00;;;;;;;0.80;0.80;;;;;;;5.04;100.00;100802.72;6069007;23;20094;-93
2023/01/06 09:23:26;;;;;;;0.88;0.88;;;;;;;5.11;100.00;100797.28;6044659;23;20097;-93
2023/01/06 09:25:56;;;;;;;1.52;1.42;;;;;;;5.19;100.00;100798.91;6069010;23;20022;-92
2023/01/06 09:28:22;;;;;;;0.63;0.63;;;;;;;5.27;100.00;100795.03;6045365;23;20054;-91
2023/01/06 09:30:51;;;;;;;1.80;1.23;;;;;;;5.16;100.00;100789.47;6091992;23;20034;-91
2023/01/06 09:33:19;;;;;;;0.88;0.88;;;;;;;5.06;100.00;100772.88;6044515;23;20459;-93
2023/01/06 09:35:45;;;;;;;1.92;1.33;;;;;;;5.37;100.00;100807.28;6044880;23;20518;-93
2023/01/06 09:38:14;;;;;;;1.63;1.48;;;;;;;5.40;100.00;100792.75;6068738;23;20097;-92
2023/01/06 09:41:07;;;;;;;1.08;1.00;;;;;;;5.58;100.00;100797.19;6069532;23;20111;-91
2023/01/06 09:43:54;;;;;;;2.63;2.10;;;;;;;5.57;100.00;100765.34;6094110;23;20065;-92
2023/01/06 09:46:23;;;;;;;1.48;1.38;;;;;;;5.80;100.00;100780.78;6068129;23;20332;-92
2023/01/06 09:49:00;;;;;;;0.63;0.63;;;;;;;5.83;100.00;100761.53;6069336;23;20085;-94
2023/01/06 09:51:26;;;;;;;0.52;0.43;;;;;;;6.11;100.00;100760.88;6093495;23;20019;-93
2023/01/06 09:54:17;;;;;;;1.40;1.13;;;;;;;6.32;100.00;100760.94;6092391;23;20474;-92
2023/01/06 09:56:46;;;;;;;0.88;0.82;;;;;;;6.45;100.00;100745.59;6061510;23;20018;-93
2023/01/06 09:59:23;;;;;;;1.50;1.40;;;;;;;6.67;100.00;100748.38;6090272;23;20011;-93
2023/01/06 10:01:50;;;;;;;0.77;0.77;;;;;;;6.83;100.00;100746.81;6043522;23;20499;-91
2023/01/06 10:04:25;;;;;;;2.03;1.85;;;;;;;7.03;100.00;100744.44;6068101;23;20017;-92
2023/01/06 10:07:05;;;;;;;1.95;1.83;;;;;;;7.28;100.00;100758.97;6091555;23;20022;-92
2023/01/06 10:09:53;;;;;;;4.47;3.00;;;;;;;7.33;100.00;100711.66;6091388;23;20125;-91
2023/01/06 10:12:44;;;;;;;1.35;1.25;;;;;;;7.69;100.00;100744.66;6091411;23;20045;-92
2023/01/06 10:15:18;;;;;;;2.22;1.83;;;;;;;7.88;100.00;100738.66;6092432;23;20081;-92
2023/01/06 10:18:13;;;;;;;2.28;1.27;;;;;;;8.09;100.00;100719.19;6092387;23;20017;-93
2023/01/06 10:20:48;;;;;;;2.40;2.20;;;;;;;8.29;100.00;100709.22;6043877;23;20030;-93
2023/01/06 10:23:29;;;;;;;2.95;2.20;;;;;;;8.52;100.00;100717.00;6090568;23;20010;-94
2023/01/06 10:26:16;;;;;;;5.03;3.15;;;;;;;8.83;100.00;100709.59;6091690;23;20093;-92
2023/01/06 10:28:51;;;;;;;1.50;1.40;;;;;;;9.07;100.00;100711.34;6091555;23;20538;-93
2023/01/06 10:31:23;;;;;;;1.42;1.30;;;;;;;9.12;100.00;100680.47;6091736;23;20006;-93
2023/01/06 10:33:51;;;;;;;2.25;2.03;;;;;;;9.13;100.00;100668.22;6043983;23;20019;-93
2023/01/06 10:36:32;;;;;;;2.45;2.20;;;;;;;9.62;100.00;100710.38;6068344;23;20011;-92
2023/01/06 10:38:58;;;;;;;1.42;1.33;;;;;;;9.52;100.00;100700.19;6092031;23;20395;-93
2023/01/06 10:41:33;;;;;;;1.77;1.65;;;;;;;9.55;100.00;100705.69;6093793;23;20007;-92
2023/01/06 10:43:59;;;;;;;1.10;1.10;;;;;;;9.46;100.00;100672.19;6091280;23;20065;-93
2023/01/06 10:46:33;;;;;;;0.88;0.88;;;;;;;9.68;100.00;100703.16;6068191;23;20006;-91
2023/01/06 10:49:00;;;;;;;4.03;2.90;;;;;;;9.51;100.00;100676.47;6091908;23;20014;-93
2023/01/06 10:51:36;;;;;;;0.60;0.60;;;;;;;9.23;100.00;100656.22;6091812;23;20432;-92
2023/01/06 10:54:07;;;;;;;2.47;1.42;;;;;;;9.56;100.00;100703.72;6091313;23;20014;-92
2023/01/06 10:56:34;;;;;;;2.38;1.30;;;;;;;9.52;100.00;100666.97;6068430;23;20014;-93
2023/01/06 10:59:10;;;;;;;2.33;2.05;;;;;;;9.86;100.00;100662.19;6066819;23;20431;-92
2023/01/06 11:01:55;;;;;;;1.98;1.85;;;;;;;10.20;100.00;100673.97;6043727;23;20018;-92
2023/01/06 11:04:25;;;;;;;2.25;2.05;;;;;;;10.42;100.00;100652.25;6092060;23;20030;-92
2023/01/06 11:07:04;;;;;;;1.55;1.45;;;;;;;10.50;100.00;100658.47;6073802;23;20243;-92
2023/01/06 11:09:37;;;;;;;1.73;1.63;;;;;;;10.53;100.00;100657.59;6017995;23;20062;-93
2023/01/06 11:12:12;;;;;;;2.00;1.27;;;;;;;10.49;100.00;100657.66;6063863;23;20102;-92
2023/01/06 11:14:38;;;;;;;1.88;1.73;;;;;;;10.37;100.00;100643.59;6015539;23;20348;-92
2023/01/06 11:17:08;;;;;;;1.45;1.35;;;;;;;10.45;100.00;100650.59;6064552;23;19998;-92
2023/01/06 11:19:39;;;;;;;1.92;0.93;;;;;;;10.48;100.00;100635.88;6015576;23;20098;-92
2023/01/06 11:22:37;;;;;;;1.52;1.17;;;;;;;10.56;100.00;100645.66;6039312;23;20018;-93
2023/01/06 11:25:38;;;;;;;;;;;;;;;;;;;;;
2023/01/06 11:28:14;;;;;;;1.30;1.20;;;;;;;11.07;100.00;100649.91;6064320;23;20025;-92
2023/01/06 11:30:44;;;;;;;0.77;0.70;;;;;;;11.15;100.00;100649.34;6039132;23;20011;-92
2023/01/06 11:33:21;;;;;;;1.33;1.23;;;;;;;11.11;100.00;100643.09;6038728;23;20029;-94
2023/01/06 11:35:48;;;;;;;1.35;1.25;;;;;;;11.17;100.00;100652.47;6015704;23;20019;-92
2023/01/06 11:38:15;;;;;;;0.80;0.77;;;;;;;11.36;100.00;100662.03;6015724;23;20309;-93
2023/01/06 11:40:46;;;;;;;1.80;1.70;;;;;;;11.25;100.00;100642.00;6039107;23;20014;-92
2023/01/06 11:43:21;;;;;;;2.28;2.10;;;;;;;11.28;100.00;100651.50;6038780;23;20204;-94
2023/01/06 11:46:00;;;;;;;2.22;1.83;;;;;;;11.51;100.00;100654.97;6038777;23;20014;-92